createdAt,value
2018-08-09T00:02:14.414Z,99.90
2018-08-09T00:04:43.022Z,99.90
2018-08-09T00:07:11.619Z,99.90
2018-08-09T00:09:40.212Z,99.90
2018-08-09T00:12:08.943Z,99.90
2018-08-09T00:14:37.553Z,99.90
2018-08-09T00:17:06.134Z,99.90
2018-08-09T00:19:34.709Z,99.90
2018-08-09T00:22:03.386Z,99.90
2018-08-09T00:24:31.937Z,99.90
2018-08-09T00:27:00.422Z,99.90
2018-08-09T00:29:28.950Z,99.90
2018-08-09T00:31:57.476Z,99.90
2018-08-09T00:34:26.013Z,99.90
2018-08-09T00:36:54.546Z,99.90
2018-08-09T00:39:23.062Z,99.90
2018-08-09T00:41:51.637Z,99.90
2018-08-09T00:44:20.225Z,99.90
2018-08-09T00:46:48.784Z,99.90
2018-08-09T00:49:17.350Z,99.90
2018-08-09T00:51:46.005Z,99.90
2018-08-09T00:54:14.568Z,99.90
2018-08-09T00:56:43.110Z,99.90
2018-08-09T00:59:11.676Z,99.90
2018-08-09T01:01:40.289Z,99.90
2018-08-09T01:04:08.869Z,99.90
2018-08-09T01:06:37.437Z,99.90
2018-08-09T01:09:08.722Z,99.90
2018-08-09T01:11:38.387Z,99.90
2018-08-09T01:14:06.972Z,99.90
2018-08-09T01:16:35.613Z,99.90
2018-08-09T01:19:04.252Z,99.90
2018-08-09T01:21:32.873Z,99.90
2018-08-09T01:24:01.497Z,99.90
2018-08-09T01:26:30.122Z,99.90
2018-08-09T01:28:58.657Z,99.90
2018-08-09T01:31:32.378Z,99.90
2018-08-09T01:34:01.749Z,99.90
2018-08-09T01:36:30.326Z,99.90
2018-08-09T01:38:58.934Z,99.90
2018-08-09T01:41:27.593Z,99.90
2018-08-09T01:44:00.158Z,99.90
2018-08-09T01:46:28.995Z,99.90
2018-08-09T01:48:58.081Z,99.90
2018-08-09T01:51:27.390Z,99.90
2018-08-09T01:53:55.946Z,99.90
2018-08-09T01:56:24.578Z,99.90
2018-08-09T01:58:53.722Z,99.90
2018-08-09T02:01:22.538Z,99.90
2018-08-09T02:03:51.058Z,99.90
2018-08-09T02:06:20.230Z,99.90
2018-08-09T02:08:49.116Z,99.90
2018-08-09T02:11:17.716Z,99.90
2018-08-09T02:13:46.233Z,99.90
2018-08-09T02:16:14.741Z,99.90
2018-08-09T02:18:43.385Z,99.90
2018-08-09T02:21:12.010Z,99.90
2018-08-09T02:23:40.645Z,99.90
2018-08-09T02:26:09.244Z,99.90
2018-08-09T02:28:37.922Z,99.90
2018-08-09T02:31:06.558Z,99.90
2018-08-09T02:33:35.179Z,99.90
2018-08-09T02:36:03.779Z,99.90
2018-08-09T02:38:32.547Z,99.90
2018-08-09T02:41:01.268Z,99.90
2018-08-09T02:43:29.893Z,99.90
2018-08-09T02:45:58.502Z,99.90
2018-08-09T02:48:27.148Z,99.90
2018-08-09T02:50:55.754Z,99.90
2018-08-09T02:53:24.379Z,99.90
2018-08-09T02:55:52.987Z,99.90
2018-08-09T02:58:21.699Z,99.90
2018-08-09T03:00:50.286Z,99.90
2018-08-09T03:03:18.926Z,99.90
2018-08-09T03:05:47.530Z,99.90
2018-08-09T03:08:16.168Z,99.90
2018-08-09T03:10:44.766Z,99.90
2018-08-09T03:13:13.420Z,99.90
2018-08-09T03:15:43.152Z,99.90
2018-08-09T03:18:11.732Z,99.90
2018-08-09T03:20:40.393Z,99.90
2018-08-09T03:23:09.002Z,99.90
2018-08-09T03:25:37.658Z,99.90
2018-08-09T03:28:06.335Z,99.90
2018-08-09T03:30:34.960Z,99.90
2018-08-09T03:33:03.570Z,99.90
2018-08-09T03:35:32.194Z,99.90
2018-08-09T03:38:00.810Z,99.90
2018-08-09T03:40:29.437Z,99.90
2018-08-09T03:42:58.074Z,99.90
2018-08-09T03:45:26.982Z,99.90
2018-08-09T03:47:55.630Z,99.90
2018-08-09T03:50:24.325Z,99.90
2018-08-09T03:52:52.949Z,99.90
2018-08-09T03:55:21.603Z,99.90
2018-08-09T03:57:50.229Z,99.90
2018-08-09T04:00:18.885Z,99.90
2018-08-09T04:02:47.529Z,99.90
2018-08-09T04:05:16.257Z,99.90
2018-08-09T04:07:44.938Z,99.90
2018-08-09T04:10:13.583Z,99.90
2018-08-09T04:12:42.210Z,99.90
2018-08-09T04:15:11.807Z,99.90
2018-08-09T04:17:40.466Z,99.90
2018-08-09T04:20:09.072Z,99.90
2018-08-09T04:22:37.701Z,99.90
2018-08-09T04:25:06.355Z,99.90
2018-08-09T04:27:34.981Z,99.90
2018-08-09T04:30:03.669Z,99.90
2018-08-09T04:32:32.278Z,99.90
2018-08-09T04:35:00.969Z,99.90
2018-08-09T04:37:29.613Z,99.90
2018-08-09T04:39:58.225Z,99.90
2018-08-09T04:42:26.838Z,99.90
2018-08-09T04:44:55.456Z,99.90
2018-08-09T04:47:24.112Z,99.90
2018-08-09T04:49:52.739Z,99.90
2018-08-09T04:52:21.433Z,99.90
2018-08-09T04:54:50.049Z,99.90
2018-08-09T04:57:18.689Z,99.90
2018-08-09T04:59:47.294Z,99.90
2018-08-09T05:02:15.909Z,99.90
2018-08-09T05:04:44.485Z,99.90
2018-08-09T05:07:13.060Z,99.90
2018-08-09T05:09:41.750Z,99.90
2018-08-09T05:12:10.395Z,99.90
2018-08-09T05:14:40.067Z,99.90
2018-08-09T05:17:08.696Z,99.90
2018-08-09T05:19:37.307Z,99.90
2018-08-09T05:22:06.481Z,99.90
2018-08-09T05:24:35.113Z,99.90
2018-08-09T05:27:03.744Z,99.90
2018-08-09T05:29:32.395Z,99.90
2018-08-09T05:32:01.015Z,99.90
2018-08-09T05:34:29.641Z,99.90
2018-08-09T05:36:58.273Z,99.90
2018-08-09T05:39:26.910Z,99.90
2018-08-09T05:41:55.551Z,99.90
2018-08-09T05:44:24.173Z,99.90
2018-08-09T05:46:52.818Z,99.90
2018-08-09T05:49:21.501Z,99.90
2018-08-09T05:51:50.141Z,99.90
2018-08-09T05:54:18.773Z,99.90
2018-08-09T05:56:47.375Z,99.90
2018-08-09T05:59:16.059Z,99.90
2018-08-09T06:01:44.662Z,99.90
2018-08-09T06:04:13.294Z,99.90
2018-08-09T06:06:41.956Z,99.90
2018-08-09T06:09:11.927Z,99.90
2018-08-09T06:11:40.582Z,99.90
2018-08-09T06:14:10.213Z,99.90
2018-08-09T06:16:39.301Z,99.90
2018-08-09T06:19:08.303Z,99.90
2018-08-09T06:21:37.081Z,99.90
2018-08-09T06:24:05.818Z,99.90
2018-08-09T06:26:34.519Z,99.90
2018-08-09T06:29:03.226Z,99.90
2018-08-09T06:31:31.942Z,99.90
2018-08-09T06:34:00.583Z,99.90
2018-08-09T06:36:29.253Z,99.90
2018-08-09T06:38:57.910Z,99.90
2018-08-09T06:41:26.664Z,99.90
2018-08-09T06:43:55.310Z,99.90
2018-08-09T06:46:24.008Z,99.90
2018-08-09T06:48:52.736Z,99.90
2018-08-09T06:51:21.490Z,99.90
2018-08-09T06:53:50.157Z,99.90
2018-08-09T06:56:18.907Z,99.90
2018-08-09T06:58:47.570Z,99.90
2018-08-09T07:01:16.280Z,99.90
2018-08-09T07:03:45.083Z,99.90
2018-08-09T07:06:13.797Z,99.90
2018-08-09T07:08:42.604Z,99.90
2018-08-09T07:11:11.451Z,99.90
2018-08-09T07:13:40.327Z,99.90
2018-08-09T07:16:09.107Z,99.90
2018-08-09T07:18:37.907Z,99.90
2018-08-09T07:21:06.947Z,99.90
2018-08-09T07:23:35.663Z,99.90
2018-08-09T07:26:04.480Z,99.90
2018-08-09T07:28:33.224Z,99.90
2018-08-09T07:31:01.893Z,99.90
2018-08-09T07:33:30.586Z,99.90
2018-08-09T07:35:59.372Z,99.90
2018-08-09T07:38:28.118Z,99.90
2018-08-09T07:40:56.975Z,99.30
2018-08-09T07:43:25.728Z,99.10
2018-08-09T07:45:54.510Z,98.90
2018-08-09T07:48:23.391Z,99.20
2018-08-09T07:50:52.109Z,97.70
2018-08-09T07:53:20.850Z,97.10
2018-08-09T07:55:49.613Z,98.60
2018-08-09T07:58:18.355Z,98.20
2018-08-09T08:00:47.087Z,97.20
2018-08-09T08:03:15.762Z,97.90
2018-08-09T08:05:44.616Z,96.90
2018-08-09T08:08:13.300Z,97.40
2018-08-09T08:10:42.042Z,97.40
2018-08-09T08:13:10.776Z,96.40
2018-08-09T08:15:39.568Z,95.40
2018-08-09T08:18:08.273Z,96.00
2018-08-09T08:20:37.119Z,95.20
2018-08-09T08:23:06.031Z,95.80
2018-08-09T08:25:34.789Z,95.10
2018-08-09T08:28:03.546Z,94.30
2018-08-09T08:30:32.366Z,94.90
2018-08-09T08:33:01.126Z,94.40
2018-08-09T08:35:29.937Z,93.70
2018-08-09T08:37:58.696Z,94.10
2018-08-09T08:40:27.509Z,93.70
2018-08-09T08:42:56.223Z,93.60
2018-08-09T08:45:24.966Z,93.50
2018-08-09T08:47:53.710Z,93.80
2018-08-09T08:50:22.471Z,93.70
2018-08-09T08:52:51.293Z,94.30
2018-08-09T08:55:20.147Z,93.40
2018-08-09T08:57:48.855Z,93.20
2018-08-09T09:00:17.632Z,93.00
2018-08-09T09:02:46.362Z,93.10
2018-08-09T09:05:15.254Z,92.30
2018-08-09T09:07:43.825Z,92.70
2018-08-09T09:10:14.000Z,92.20
2018-08-09T09:12:42.861Z,92.30
2018-08-09T09:15:13.656Z,92.00
2018-08-09T09:17:43.462Z,91.70
2018-08-09T09:20:14.870Z,91.70
2018-08-09T09:22:44.110Z,91.40
2018-08-09T09:25:13.514Z,91.90
2018-08-09T09:27:42.333Z,91.20
2018-08-09T09:30:13.576Z,90.60
2018-08-09T09:32:42.343Z,90.70
2018-08-09T09:35:11.091Z,90.20
2018-08-09T09:37:40.750Z,89.80
2018-08-09T09:40:10.082Z,88.60
2018-08-09T09:42:39.386Z,87.50
2018-08-09T09:45:09.435Z,86.30
2018-08-09T09:47:38.303Z,87.90
2018-08-09T09:50:08.616Z,86.90
2018-08-09T09:52:37.344Z,87.20
2018-08-09T09:55:06.288Z,85.00
2018-08-09T09:57:35.114Z,83.30
2018-08-09T10:00:04.044Z,84.60
2018-08-09T10:02:32.753Z,82.90
2018-08-09T10:05:01.474Z,82.10
2018-08-09T10:07:30.261Z,82.00
2018-08-09T10:09:58.960Z,81.10
2018-08-09T10:12:27.852Z,81.80
2018-08-09T10:14:56.596Z,81.00
2018-08-09T10:17:25.382Z,79.30
2018-08-09T10:19:54.122Z,80.00
2018-08-09T10:22:22.874Z,79.80
2018-08-09T10:24:51.561Z,79.40
2018-08-09T10:27:20.236Z,79.20
2018-08-09T10:29:49.045Z,79.10
2018-08-09T10:32:17.738Z,79.10
2018-08-09T10:34:46.440Z,76.90
2018-08-09T10:37:15.136Z,76.70
2018-08-09T10:39:43.827Z,76.90
2018-08-09T10:42:12.555Z,78.40
2018-08-09T10:44:41.255Z,74.90
2018-08-09T10:47:10.008Z,76.00
2018-08-09T10:49:38.770Z,75.60
2018-08-09T10:52:07.483Z,75.50
2018-08-09T10:54:36.309Z,75.10
2018-08-09T10:57:05.199Z,75.80
2018-08-09T10:59:33.943Z,74.40
2018-08-09T11:02:02.786Z,76.20
2018-08-09T11:04:31.525Z,74.10
2018-08-09T11:07:00.245Z,73.40
2018-08-09T11:09:28.938Z,73.20
2018-08-09T11:11:57.607Z,71.60
2018-08-09T11:14:26.355Z,72.20
2018-08-09T11:16:55.093Z,73.20
2018-08-09T11:19:23.834Z,74.10
2018-08-09T11:21:52.618Z,74.10
2018-08-09T11:24:21.337Z,72.40
2018-08-09T11:26:50.022Z,74.10
2018-08-09T11:29:18.724Z,71.40
2018-08-09T11:31:47.462Z,70.70
2018-08-09T11:34:16.116Z,72.80
2018-08-09T11:36:44.860Z,71.00
2018-08-09T11:39:13.605Z,72.10
2018-08-09T11:41:42.354Z,72.80
2018-08-09T11:44:11.700Z,72.40
2018-08-09T11:46:40.441Z,72.00
2018-08-09T11:49:09.147Z,71.90
2018-08-09T11:51:37.817Z,71.50
2018-08-09T11:54:06.772Z,69.90
2018-08-09T11:56:35.554Z,71.40
2018-08-09T11:59:04.258Z,70.90
2018-08-09T12:01:33.206Z,69.20
2018-08-09T12:04:01.834Z,70.40
2018-08-09T12:06:30.636Z,68.50
2018-08-09T12:08:59.483Z,72.50
2018-08-09T12:11:29.116Z,67.60
2018-08-09T12:13:57.907Z,67.30
2018-08-09T12:16:26.623Z,66.00
2018-08-09T12:18:55.355Z,69.10
2018-08-09T12:21:24.178Z,66.90
2018-08-09T12:23:52.930Z,63.70
2018-08-09T12:26:21.662Z,63.50
2018-08-09T12:28:50.398Z,65.30
2018-08-09T12:31:19.146Z,65.30
2018-08-09T12:33:47.843Z,67.60
2018-08-09T12:36:16.514Z,65.90
2018-08-09T12:38:45.213Z,65.00
2018-08-09T12:41:13.869Z,65.60
2018-08-09T12:43:42.703Z,65.60
2018-08-09T12:46:11.448Z,64.00
2018-08-09T12:48:40.263Z,64.70
2018-08-09T12:51:09.091Z,62.30
2018-08-09T12:53:37.819Z,63.70
2018-08-09T12:56:06.670Z,60.60
2018-08-09T12:58:35.438Z,62.50
2018-08-09T13:01:04.191Z,63.20
2018-08-09T13:03:33.158Z,62.00
2018-08-09T13:06:01.999Z,62.00
2018-08-09T13:08:30.780Z,61.40
2018-08-09T13:10:59.503Z,62.00
2018-08-09T13:13:28.138Z,60.80
2018-08-09T13:15:56.874Z,60.60
2018-08-09T13:18:25.623Z,61.70
2018-08-09T13:20:54.401Z,60.80
2018-08-09T13:23:23.144Z,60.30
2018-08-09T13:25:51.954Z,62.00
2018-08-09T13:28:20.778Z,60.70
2018-08-09T13:30:49.529Z,62.50
2018-08-09T13:33:18.506Z,63.00
2018-08-09T13:35:47.182Z,65.00
2018-08-09T13:38:15.860Z,62.00
2018-08-09T13:40:44.555Z,59.40
2018-08-09T13:43:13.279Z,63.10
2018-08-09T13:45:41.985Z,62.80
2018-08-09T13:48:10.674Z,60.90
2018-08-09T13:50:39.399Z,61.20
2018-08-09T13:53:08.163Z,58.80
2018-08-09T13:55:36.961Z,59.20
2018-08-09T13:58:05.853Z,58.70
2018-08-09T14:00:34.554Z,60.50
2018-08-09T14:03:03.289Z,60.30
2018-08-09T14:05:32.103Z,58.70
2018-08-09T14:08:00.854Z,60.00
2018-08-09T14:10:29.678Z,59.80
2018-08-09T14:12:58.482Z,60.80
2018-08-09T14:15:27.320Z,61.00
2018-08-09T14:17:56.045Z,60.80
2018-08-09T14:20:24.799Z,64.10
2018-08-09T14:22:53.556Z,72.50
2018-08-09T14:25:22.193Z,75.80
2018-08-09T14:27:50.905Z,79.20
2018-08-09T14:30:19.638Z,81.70
2018-08-09T14:32:48.460Z,83.10
2018-08-09T14:35:17.618Z,83.90
2018-08-09T14:37:46.793Z,85.10
2018-08-09T14:40:16.270Z,89.30
2018-08-09T14:42:45.062Z,91.40
2018-08-09T14:45:15.164Z,90.70
2018-08-09T14:47:44.017Z,90.20
2018-08-09T14:50:12.677Z,89.70
2018-08-09T14:52:41.476Z,88.80
2018-08-09T14:55:12.212Z,89.50
2018-08-09T14:57:41.353Z,88.90
2018-08-09T15:00:14.995Z,88.80
2018-08-09T15:02:44.138Z,89.30
2018-08-09T15:05:12.847Z,89.90
2018-08-09T15:07:42.102Z,89.90
2018-08-09T15:10:11.134Z,90.30
2018-08-09T15:12:40.958Z,90.30
2018-08-09T15:17:28.970Z,90.40
2018-08-09T15:19:57.587Z,91.10
2018-08-09T15:22:26.361Z,91.60
2018-08-09T15:24:55.061Z,91.60
2018-08-09T15:27:23.852Z,91.40
2018-08-09T15:29:52.599Z,91.60
2018-08-09T15:32:21.425Z,91.60
2018-08-09T15:34:50.135Z,91.70
2018-08-09T15:37:18.887Z,91.80
2018-08-09T15:39:47.521Z,92.20
2018-08-09T15:42:17.153Z,92.20
2018-08-09T15:44:45.913Z,93.30
2018-08-09T15:47:14.678Z,94.40
2018-08-09T15:49:43.245Z,95.60
2018-08-09T15:52:11.979Z,97.30
2018-08-09T15:54:40.747Z,99.20
2018-08-09T15:57:09.393Z,99.90
2018-08-09T15:59:39.067Z,99.90
2018-08-09T16:02:07.668Z,99.90
2018-08-09T16:04:36.496Z,99.90
2018-08-09T16:07:05.250Z,99.90
2018-08-09T16:09:34.073Z,99.90
2018-08-09T16:12:02.775Z,99.90
2018-08-09T16:14:31.619Z,99.90
2018-08-09T16:17:00.270Z,99.90
2018-08-09T16:19:28.997Z,99.90
2018-08-09T16:21:57.629Z,99.90
2018-08-09T16:24:26.323Z,99.90
2018-08-09T16:26:54.981Z,99.90
2018-08-09T16:29:23.660Z,99.90
2018-08-09T16:31:52.326Z,99.90
2018-08-09T16:34:20.993Z,99.90
2018-08-09T16:36:49.641Z,99.90
2018-08-09T16:39:19.299Z,99.90
2018-08-09T16:41:48.010Z,99.90
2018-08-09T16:44:16.638Z,99.90
2018-08-09T16:46:45.323Z,99.90
2018-08-09T16:49:13.979Z,99.90
2018-08-09T16:51:42.691Z,99.90
2018-08-09T16:54:11.430Z,99.90
2018-08-09T16:56:40.079Z,99.90
2018-08-09T16:59:08.833Z,99.90
2018-08-09T17:01:37.550Z,99.90
2018-08-09T17:04:06.301Z,99.90
2018-08-09T17:06:35.066Z,99.90
2018-08-09T17:09:06.684Z,99.90
2018-08-09T17:11:38.791Z,99.90
2018-08-09T17:14:07.493Z,99.90
2018-08-09T17:16:36.334Z,99.90
2018-08-09T17:19:05.173Z,99.90
2018-08-09T17:21:33.836Z,99.90
2018-08-09T17:24:02.466Z,99.90
2018-08-09T17:26:31.190Z,99.90
2018-08-09T17:29:00.130Z,99.90
2018-08-09T17:31:28.947Z,99.90
2018-08-09T17:33:57.666Z,99.90
2018-08-09T17:36:26.384Z,99.90
2018-08-09T17:38:55.088Z,99.90
2018-08-09T17:41:24.024Z,99.90
2018-08-09T17:43:52.754Z,99.90
2018-08-09T17:46:21.486Z,99.90
2018-08-09T17:48:50.183Z,99.90
2018-08-09T17:51:19.028Z,99.90
2018-08-09T17:53:47.740Z,99.90
2018-08-09T17:56:16.401Z,99.90
2018-08-09T17:58:45.003Z,99.90
2018-08-09T18:01:13.661Z,99.90
2018-08-09T18:03:42.435Z,99.90
2018-08-09T18:06:11.046Z,99.90
2018-08-09T18:08:39.789Z,99.90
2018-08-09T18:11:08.484Z,99.90
2018-08-09T18:13:37.197Z,99.90
2018-08-09T18:16:05.830Z,99.90
2018-08-09T18:18:34.567Z,99.90
2018-08-09T18:21:03.238Z,99.90
2018-08-09T18:23:31.974Z,99.90
2018-08-09T18:26:00.615Z,99.90
2018-08-09T18:28:29.335Z,99.90
2018-08-09T18:30:58.174Z,99.90
2018-08-09T18:33:26.870Z,99.90
2018-08-09T18:35:55.611Z,99.90
2018-08-09T18:38:24.338Z,99.90
2018-08-09T18:40:53.006Z,99.90
2018-08-09T18:43:21.815Z,99.90
2018-08-09T18:45:50.515Z,99.90
2018-08-09T18:48:19.269Z,99.90
2018-08-09T18:50:47.984Z,99.90
2018-08-09T18:53:16.782Z,99.90
2018-08-09T18:55:45.491Z,99.90
2018-08-09T18:58:14.193Z,99.90
2018-08-09T19:00:42.959Z,99.90
2018-08-09T19:03:12.490Z,99.90
2018-08-09T19:05:41.262Z,99.90
2018-08-09T19:08:09.982Z,99.90
2018-08-09T19:10:38.743Z,99.90
2018-08-09T19:13:07.516Z,99.90
2018-08-09T19:15:36.214Z,99.90
2018-08-09T19:18:05.358Z,99.90
2018-08-09T19:20:35.151Z,99.90
2018-08-09T19:23:05.263Z,99.90
2018-08-09T19:25:34.155Z,99.90
2018-08-09T19:28:02.881Z,99.90
2018-08-09T19:30:31.694Z,99.90
2018-08-09T19:33:00.510Z,99.90
2018-08-09T19:35:29.294Z,99.90
2018-08-09T19:37:58.026Z,99.90
2018-08-09T19:40:29.289Z,99.90
2018-08-09T19:42:58.016Z,99.90
2018-08-09T19:45:26.775Z,99.90
2018-08-09T19:47:57.666Z,99.90
2018-08-09T19:50:26.445Z,99.90
2018-08-09T19:52:55.184Z,99.90
2018-08-09T19:55:25.479Z,99.90
2018-08-09T19:57:54.274Z,99.90
2018-08-09T20:00:28.494Z,99.90
2018-08-09T20:02:57.327Z,99.90
2018-08-09T20:05:26.117Z,99.90
2018-08-09T20:07:54.947Z,99.90
2018-08-09T20:10:23.853Z,99.90
2018-08-09T20:12:52.685Z,99.90
2018-08-09T20:15:22.803Z,99.90
2018-08-09T20:17:51.551Z,99.90
2018-08-09T20:20:21.813Z,99.90
2018-08-09T20:22:50.619Z,99.90
2018-08-09T20:25:19.294Z,99.90
2018-08-09T20:27:48.049Z,99.90
2018-08-09T20:30:17.613Z,99.90
2018-08-09T20:32:47.033Z,99.90
2018-08-09T20:35:17.052Z,99.90
2018-08-09T20:37:46.664Z,99.90
2018-08-09T20:40:16.780Z,99.90
2018-08-09T20:42:46.475Z,99.90
2018-08-09T20:45:16.488Z,99.90
2018-08-09T20:47:45.196Z,99.90
2018-08-09T20:50:16.287Z,99.90
2018-08-09T20:52:45.861Z,99.90
2018-08-09T20:55:14.575Z,99.90
2018-08-09T20:57:44.197Z,99.90
2018-08-09T21:00:16.354Z,99.90
2018-08-09T21:02:46.189Z,99.90
2018-08-09T21:05:25.310Z,99.90
2018-08-09T21:07:54.977Z,99.90
2018-08-09T21:10:24.319Z,99.90
2018-08-09T21:12:53.099Z,99.90
2018-08-09T21:15:21.885Z,99.90
2018-08-09T21:17:50.612Z,99.90
2018-08-09T21:20:19.419Z,99.90
2018-08-09T21:22:49.031Z,99.90
2018-08-09T21:25:17.795Z,99.90
2018-08-09T21:27:47.207Z,99.90
2018-08-09T21:30:18.034Z,99.90
2018-08-09T21:32:47.129Z,99.90
2018-08-09T21:35:15.966Z,99.90
2018-08-09T21:37:45.870Z,99.90
2018-08-09T21:40:15.257Z,99.90
2018-08-09T21:42:43.983Z,99.90
2018-08-09T21:45:15.358Z,99.90
2018-08-09T21:47:44.066Z,99.90
2018-08-09T21:50:16.317Z,99.90
2018-08-09T21:52:44.994Z,99.90
2018-08-09T21:55:13.970Z,99.90
2018-08-09T21:57:43.808Z,99.90
2018-08-09T22:00:25.628Z,99.90
2018-08-09T22:02:54.310Z,99.90
2018-08-09T22:05:28.074Z,99.90
2018-08-09T22:08:02.043Z,99.90
2018-08-09T22:10:35.885Z,99.90
2018-08-09T22:13:09.738Z,99.90
2018-08-09T22:15:43.626Z,99.90
2018-08-09T22:18:17.439Z,99.90
2018-08-09T22:20:51.379Z,99.90
2018-08-09T22:23:20.135Z,99.90
2018-08-09T22:25:48.798Z,99.90
2018-08-09T22:28:17.467Z,99.90
2018-08-09T22:30:46.119Z,99.90
2018-08-09T22:33:14.805Z,99.90
2018-08-09T22:35:43.494Z,99.90
2018-08-09T22:38:12.191Z,99.90
2018-08-09T22:40:40.905Z,99.90
2018-08-09T22:43:09.564Z,99.90
2018-08-09T22:45:38.343Z,99.90
2018-08-09T22:48:07.043Z,99.90
2018-08-09T22:50:35.760Z,99.90
2018-08-09T22:53:04.389Z,99.90
2018-08-09T22:55:33.394Z,99.90
2018-08-09T22:58:02.249Z,99.90
2018-08-09T23:00:31.043Z,99.90
2018-08-09T23:02:59.710Z,99.90
2018-08-09T23:05:28.464Z,99.90
2018-08-09T23:07:57.162Z,99.90
2018-08-09T23:10:26.017Z,99.90
2018-08-09T23:12:54.697Z,99.90
2018-08-09T23:15:23.386Z,99.90
2018-08-09T23:17:52.067Z,99.90
2018-08-09T23:20:20.787Z,99.90
2018-08-09T23:22:49.530Z,99.90
2018-08-09T23:25:18.149Z,99.90
2018-08-09T23:27:47.790Z,99.90
2018-08-09T23:30:16.587Z,99.90
2018-08-09T23:32:45.304Z,99.90
2018-08-09T23:35:13.972Z,99.90
2018-08-09T23:37:42.664Z,99.90
2018-08-09T23:40:11.753Z,99.90
2018-08-09T23:42:40.467Z,99.90
2018-08-09T23:45:10.043Z,99.90
2018-08-09T23:47:39.974Z,99.90
2018-08-09T23:50:10.893Z,99.90
2018-08-09T23:52:40.323Z,99.90
2018-08-09T23:55:11.644Z,99.90
2018-08-09T23:57:40.692Z,99.90
